Time;durP1;ratioP1;P1;durP2;ratioP2;P2;SDS_P1;SDS_P2;PMS_P1;PMS_P2;Temp;Humidity;BMP_temperature;BMP_pressure;BME280_temperature;BME280_humidity;BME280_pressure;Samples;Min_cycle;Max_cycle;Signal;HPM_P1;HPM_P2
2022/05/05 00:01:16;;;;;;;28.05;22.88;;;;;;;14.30;70.50;100774.72;4182817;28;20167;-57
2022/05/05 00:03:19;;;;;;;28.20;24.25;;;;;;;14.31;70.29;100777.34;4170814;28;20033;-57
2022/05/05 00:05:22;;;;;;;24.50;21.90;;;;;;;14.31;70.99;100785.19;4190920;28;20497;-57
2022/05/05 00:07:25;;;;;;;25.08;22.42;;;;;;;14.28;70.66;100774.72;4194037;28;20406;-57
2022/05/05 00:09:29;;;;;;;25.48;21.52;;;;;;;14.28;70.68;100777.34;4190671;28;20047;-57
2022/05/05 00:16:13;;;;;;;29.10;25.52;;;;;;;14.29;69.50;100784.31;4188679;28;20036;-57
2022/05/05 00:18:16;;;;;;;30.05;25.90;;;;;;;14.28;69.46;100785.19;4186457;28;20457;-57
2022/05/05 00:20:18;;;;;;;26.60;23.17;;;;;;;14.24;69.81;100782.56;4189837;28;20072;-56
2022/05/05 00:22:21;;;;;;;29.65;26.33;;;;;;;14.24;70.08;100775.56;4190429;28;20305;-57
2022/05/05 00:24:24;;;;;;;26.95;23.67;;;;;;;14.24;69.67;100775.56;4189574;28;20116;-57
2022/05/05 00:26:28;;;;;;;29.67;26.73;;;;;;;14.25;69.78;100784.28;4187289;28;20044;-57
2022/05/05 00:28:31;;;;;;;31.70;24.60;;;;;;;14.24;70.46;100783.41;4188935;28;20037;-56
2022/05/05 00:30:34;;;;;;;30.88;24.60;;;;;;;14.25;70.07;100784.28;4185245;28;20033;-56
2022/05/05 00:32:38;;;;;;;28.58;25.38;;;;;;;14.28;69.59;100779.06;4188687;28;20046;-56
2022/05/05 00:34:41;;;;;;;28.50;25.42;;;;;;;14.26;69.98;100781.66;4191078;28;20040;-56
2022/05/05 00:36:44;;;;;;;31.90;27.52;;;;;;;14.26;70.55;100786.91;4190117;28;20040;-57
2022/05/05 00:38:47;;;;;;;27.92;24.52;;;;;;;14.22;70.80;100781.66;4189849;28;20103;-57
2022/05/05 00:40:50;;;;;;;27.95;22.33;;;;;;;14.21;70.27;100786.03;4188228;28;20041;-56
2022/05/05 00:42:54;;;;;;;31.92;26.15;;;;;;;14.21;70.71;100793.00;4190432;28;20037;-57
2022/05/05 00:44:57;;;;;;;;;;;;;;;13.99;71.05;100787.66;4189756;28;20040;-57
2022/05/05 00:47:00;;;;;;;29.02;26.05;;;;;;;14.04;71.33;100790.28;4193331;28;20366;-57
2022/05/05 00:49:03;;;;;;;28.90;24.52;;;;;;;14.08;70.86;100790.31;4188426;28;20094;-57
2022/05/05 00:51:06;;;;;;;26.33;23.55;;;;;;;14.09;71.08;100788.56;4182886;28;20441;-56
2022/05/05 00:53:09;;;;;;;30.10;25.48;;;;;;;14.11;70.79;100781.63;4189321;28;20048;-57
2022/05/05 00:55:12;;;;;;;26.33;23.52;;;;;;;14.10;71.03;100775.50;4189656;28;20033;-57
2022/05/05 00:57:15;;;;;;;30.02;26.92;;;;;;;14.08;70.87;100782.47;4186403;28;20514;-57
2022/05/05 00:59:20;;;;;;;28.92;25.70;;;;;;;14.12;70.92;100781.63;4188909;28;20433;-57
2022/05/05 01:01:23;;;;;;;26.23;22.25;;;;;;;14.12;70.50;100781.63;4172557;28;20044;-56
2022/05/05 01:03:26;;;;;;;25.13;22.02;;;;;;;14.13;70.74;100778.16;4186768;28;20048;-56
2022/05/05 01:05:30;;;;;;;27.98;23.42;;;;;;;14.13;70.38;100778.16;4182415;28;20087;-57
2022/05/05 01:07:34;;;;;;;27.85;24.10;;;;;;;14.16;70.70;100779.88;4191141;28;20414;-57
2022/05/05 01:09:37;;;;;;;27.50;24.52;;;;;;;14.17;70.89;100778.16;4181069;28;20401;-57
2022/05/05 01:11:40;;;;;;;25.08;22.13;;;;;;;14.17;70.89;100780.78;4184002;28;20440;-57
2022/05/05 01:13:44;;;;;;;27.77;23.85;;;;;;;14.20;70.96;100776.41;4184490;28;20044;-57
2022/05/05 01:15:50;;;;;;;25.20;22.13;;;;;;;14.21;70.73;100772.94;4180399;28;20033;-56
2022/05/05 01:17:52;;;;;;;27.23;24.30;;;;;;;14.24;71.25;100772.09;4180125;28;20140;-56
2022/05/05 01:19:55;;;;;;;26.75;21.95;;;;;;;14.27;70.97;100772.97;4187812;28;20060;-56
2022/05/05 01:22:00;;;;;;;26.20;22.97;;;;;;;14.27;70.52;100777.31;4187784;28;20552;-56
2022/05/05 01:24:03;;;;;;;27.35;21.35;;;;;;;14.22;71.18;100776.41;4180684;28;20345;-56
2022/05/05 01:28:27;;;;;;;25.45;22.77;;;;;;;14.18;71.30;100778.16;4186722;28;20492;-57
2022/05/05 01:30:30;;;;;;;32.10;25.70;;;;;;;14.22;70.94;100779.94;4194198;28;20047;-57
2022/05/05 01:32:34;;;;;;;26.52;21.88;;;;;;;14.23;71.33;100781.66;4189924;28;20065;-56
2022/05/05 01:34:37;;;;;;;32.15;26.10;;;;;;;14.24;70.89;100782.56;4182899;28;20068;-57
2022/05/05 01:36:40;;;;;;;27.02;21.58;;;;;;;14.26;71.47;100786.03;4190598;28;20047;-57
2022/05/05 01:38:44;;;;;;;27.83;21.85;;;;;;;14.25;71.00;100785.16;4189749;28;20036;-56
2022/05/05 01:40:47;;;;;;;30.08;25.83;;;;;;;14.25;70.93;100779.94;4188201;28;20037;-56
2022/05/05 01:42:51;;;;;;;27.75;23.15;;;;;;;14.23;70.73;100780.78;4188263;28;20375;-56
2022/05/05 01:44:53;;;;;;;28.60;23.90;;;;;;;14.25;70.35;100785.16;4181668;28;20098;-57
2022/05/05 01:46:56;;;;;;;25.05;20.98;;;;;;;14.26;70.17;100781.66;4183966;28;20045;-57
2022/05/05 01:48:59;;;;;;;21.73;19.15;;;;;;;14.25;69.95;100782.56;4186152;28;20485;-57
2022/05/05 01:51:02;;;;;;;25.83;23.02;;;;;;;14.24;70.46;100783.41;4183900;28;20116;-56
2022/05/05 01:53:06;;;;;;;32.60;24.40;;;;;;;14.23;70.63;100776.44;4188009;28;20068;-57
2022/05/05 01:55:12;;;;;;;26.38;21.48;;;;;;;14.25;70.60;100785.16;4186229;28;20035;-56
2022/05/05 01:57:15;;;;;;;29.52;23.08;;;;;;;14.25;70.17;100787.78;4188053;28;20033;-56
2022/05/05 01:59:18;;;;;;;29.55;20.98;;;;;;;14.25;70.08;100787.78;4189088;28;20577;-57
2022/05/05 02:01:20;;;;;;;23.17;20.67;;;;;;;14.27;70.51;100788.66;4172428;28;20036;-57
2022/05/05 02:03:23;;;;;;;22.85;19.83;;;;;;;14.27;69.92;100791.28;4187946;28;20041;-56
2022/05/05 02:05:27;;;;;;;26.08;19.00;;;;;;;14.27;70.71;100798.25;4187043;28;20120;-57
2022/05/05 02:07:31;;;;;;;29.58;22.40;;;;;;;14.26;70.39;100792.13;4183178;28;20044;-56
2022/05/05 02:09:34;;;;;;;27.55;23.77;;;;;;;14.26;70.46;100799.97;4191106;28;20032;-56
2022/05/05 02:11:41;;;;;;;27.83;22.00;;;;;;;14.22;70.16;100787.78;4183398;28;20120;-56
2022/05/05 02:13:44;;;;;;;22.90;20.13;;;;;;;14.20;70.45;100797.34;4190720;28;20041;-57
2022/05/05 02:15:47;;;;;;;26.63;20.48;;;;;;;14.23;70.78;100791.25;4181781;28;20401;-57
2022/05/05 02:17:51;;;;;;;21.67;19.23;;;;;;;14.22;71.06;100798.25;4189449;28;20123;-56
2022/05/05 02:19:54;;;;;;;21.40;17.83;;;;;;;14.20;71.36;100796.47;4187599;28;20453;-57
2022/05/05 02:21:57;;;;;;;20.85;18.75;;;;;;;14.22;70.36;100798.25;4186761;28;20041;-57
2022/05/05 02:24:00;;;;;;;22.85;20.20;;;;;;;14.24;70.65;100790.41;4180325;28;20086;-57
2022/05/05 02:26:04;;;;;;;22.83;19.17;;;;;;;14.28;70.30;100790.41;4188654;28;20033;-57
2022/05/05 02:28:08;;;;;;;22.95;18.92;;;;;;;14.27;70.35;100799.13;4185951;28;20110;-57
2022/05/05 02:30:12;;;;;;;19.25;17.35;;;;;;;14.26;69.80;100791.25;4186432;28;20044;-57
2022/05/05 02:32:16;;;;;;;19.48;17.42;;;;;;;14.22;69.75;100790.38;4187887;28;20405;-56
2022/05/05 02:34:18;;;;;;;18.88;15.57;;;;;;;14.21;69.97;100795.63;4184017;28;20071;-57
2022/05/05 02:38:44;;;;;;;22.13;18.30;;;;;;;14.13;70.60;100793.84;4187811;28;20037;-57
2022/05/05 02:40:47;;;;;;;16.90;14.75;;;;;;;14.13;70.01;100795.56;4188429;28;20028;-57
2022/05/05 02:42:49;;;;;;;17.45;15.63;;;;;;;14.16;69.90;100794.69;4188174;28;20207;-57
2022/05/05 02:44:53;;;;;;;15.90;14.23;;;;;;;14.19;69.95;100800.81;4187314;28;20029;-57
2022/05/05 02:46:58;;;;;;;16.70;14.88;;;;;;;14.16;70.65;100794.69;4187579;28;20410;-57
2022/05/05 02:49:00;;;;;;;18.13;14.35;;;;;;;14.14;69.96;100800.78;4189303;28;20399;-57
2022/05/05 02:51:03;;;;;;;15.43;13.75;;;;;;;14.16;70.04;100802.56;4187939;28;20139;-56
2022/05/05 02:54:47;;;;;;;17.05;14.40;;;;;;;14.17;70.35;100796.47;4184388;28;20141;-56
2022/05/05 02:55:28;;;;;;;19.63;16.05;;;;;;;14.15;70.42;100793.84;4171899;28;20073;-57
2022/05/05 02:57:31;;;;;;;19.48;17.33;;;;;;;14.15;69.90;100796.47;4188692;28;20486;-56
2022/05/05 02:59:34;;;;;;;19.02;15.20;;;;;;;14.13;70.19;100790.31;4181967;28;20041;-57
2022/05/05 03:01:38;;;;;;;17.52;14.07;;;;;;;14.14;70.32;100802.53;4189170;28;20047;-57
2022/05/05 03:03:41;;;;;;;15.70;13.55;;;;;;;14.12;70.60;100799.91;4184932;28;20102;-57
2022/05/05 03:05:44;;;;;;;18.85;13.80;;;;;;;14.12;70.08;100797.31;4187542;28;20041;-57
2022/05/05 03:07:48;;;;;;;17.05;14.27;;;;;;;14.12;70.55;100797.31;4188459;28;20039;-56
2022/05/05 03:09:50;;;;;;;18.02;15.57;;;;;;;14.11;70.91;100798.16;4195359;28;20401;-55
2022/05/05 03:11:54;;;;;;;18.15;13.60;;;;;;;14.10;70.64;100798.16;4191762;28;20359;-56
2022/05/05 03:13:57;;;;;;;18.15;15.35;;;;;;;14.09;70.35;100804.25;4190047;28;20049;-56
2022/05/05 03:15:59;;;;;;;16.10;12.82;;;;;;;14.10;71.28;100800.78;4186781;28;20122;-57
2022/05/05 03:18:04;;;;;;;17.42;15.10;;;;;;;14.10;70.96;100800.78;4185516;28;20735;-56
2022/05/05 03:20:08;;;;;;;21.33;15.48;;;;;;;14.03;71.03;100793.75;4181088;28;20103;-56
2022/05/05 03:22:11;;;;;;;15.75;14.02;;;;;;;14.01;71.53;100798.13;4182264;28;20048;-57
2022/05/05 03:24:14;;;;;;;20.45;16.55;;;;;;;14.04;71.67;100809.44;4181325;28;20037;-56
2022/05/05 03:26:17;;;;;;;17.55;15.27;;;;;;;14.04;71.97;100803.34;4189615;28;20273;-57
2022/05/05 03:28:19;;;;;;;17.92;14.88;;;;;;;14.01;71.54;100812.06;4179929;28;20063;-56
2022/05/05 03:30:23;;;;;;;17.27;13.05;;;;;;;14.01;71.95;100806.81;4185076;28;20036;-56
2022/05/05 03:32:25;;;;;;;15.75;13.98;;;;;;;14.01;71.95;100811.19;4193265;28;20043;-57
2022/05/05 03:34:30;;;;;;;16.83;14.40;;;;;;;14.01;72.58;100813.81;4189844;28;20567;-57
2022/05/05 03:36:33;;;;;;;15.80;14.13;;;;;;;14.00;72.50;100817.28;4163680;28;20148;-57
2022/05/05 03:38:36;;;;;;;22.02;19.35;;;;;;;14.01;72.28;100817.28;4189570;28;20494;-57
2022/05/05 03:40:39;;;;;;;21.40;18.42;;;;;;;14.01;72.22;100821.66;4190932;28;20041;-57
2022/05/05 03:42:42;;;;;;;20.83;17.92;;;;;;;14.02;72.12;100829.50;4185697;28;20074;-57
2022/05/05 03:44:45;;;;;;;18.95;16.98;;;;;;;14.04;71.89;100826.88;4189747;28;20128;-56
2022/05/05 03:46:47;;;;;;;25.00;20.13;;;;;;;14.03;72.51;100822.53;4186600;28;20571;-56
2022/05/05 03:48:52;;;;;;;21.42;18.70;;;;;;;14.02;72.52;100825.97;4189967;28;20414;-57
2022/05/05 03:50:56;;;;;;;23.02;20.67;;;;;;;14.02;72.21;100828.59;4187283;28;20040;-57
2022/05/05 03:52:59;;;;;;;18.95;16.98;;;;;;;13.99;72.40;100833.81;4189308;28;20494;-57
2022/05/05 03:55:02;;;;;;;23.35;19.23;;;;;;;13.96;72.43;100830.34;4190075;28;20036;-57
2022/05/05 03:57:05;;;;;;;21.40;19.20;;;;;;;13.99;71.79;100829.47;4188217;28;20040;-55
2022/05/05 03:59:08;;;;;;;20.83;18.67;;;;;;;13.93;71.53;100838.16;4191385;28;20081;-56
2022/05/05 04:01:11;;;;;;;23.42;19.35;;;;;;;13.90;71.54;100840.75;4191186;28;20060;-57
2022/05/05 04:03:32;;;;;;;20.75;17.60;;;;;;;13.85;71.54;100842.44;4185531;28;20041;-57
2022/05/05 04:05:36;;;;;;;19.67;16.65;;;;;;;13.80;70.81;100846.78;4183899;28;20135;-57
2022/05/05 04:07:40;;;;;;;22.10;19.70;;;;;;;13.76;70.55;100845.00;4190019;28;20045;-57
2022/05/05 04:09:43;;;;;;;21.42;18.52;;;;;;;13.72;71.01;100849.31;4176942;28;20037;-57
2022/05/05 04:11:45;;;;;;;21.30;18.15;;;;;;;13.75;70.86;100840.63;4181685;28;20033;-56
2022/05/05 04:13:48;;;;;;;22.30;19.58;;;;;;;13.71;70.76;100850.19;4191097;28;20513;-56
2022/05/05 04:15:51;;;;;;;22.42;20.05;;;;;;;13.78;70.55;100853.72;4190931;28;20044;-57
2022/05/05 04:17:54;;;;;;;24.92;20.10;;;;;;;13.83;70.84;100849.41;4187926;28;20566;-57
2022/05/05 04:19:57;;;;;;;20.88;18.67;;;;;;;13.86;70.36;100846.81;4183923;28;20140;-56
2022/05/05 04:22:00;;;;;;;23.98;21.45;;;;;;;13.90;70.41;100850.31;4188807;28;20123;-56
2022/05/05 04:24:05;;;;;;;21.52;19.30;;;;;;;13.93;70.72;100855.56;4181879;28;20099;-57
2022/05/05 04:26:10;;;;;;;21.67;19.27;;;;;;;13.92;70.52;100857.31;4189178;28;20046;-57
2022/05/05 04:28:13;;;;;;;22.35;19.52;;;;;;;13.93;70.44;100859.06;4188409;28;20285;-57
2022/05/05 04:30:17;;;;;;;25.52;20.00;;;;;;;13.95;70.48;100853.84;4184426;28;20116;-56
2022/05/05 04:32:20;;;;;;;22.05;19.77;;;;;;;13.94;70.78;100857.31;4173686;28;20048;-57
2022/05/05 04:34:22;;;;;;;20.17;17.98;;;;;;;13.95;70.97;100859.94;4188403;28;20041;-56
2022/05/05 04:36:25;;;;;;;19.85;17.20;;;;;;;14.00;71.46;100866.94;4190783;28;20040;-57
2022/05/05 04:38:28;;;;;;;19.80;17.75;;;;;;;13.99;71.06;100865.19;4188440;28;20114;-57
2022/05/05 04:40:33;;;;;;;24.05;20.15;;;;;;;14.02;71.06;100873.94;4185639;28;20464;-57
2022/05/05 04:42:37;;;;;;;23.08;18.05;;;;;;;13.98;71.32;100869.53;4190583;28;20028;-57
2022/05/05 04:44:40;;;;;;;21.02;18.85;;;;;;;13.99;71.22;100870.41;4182796;28;20489;-57
2022/05/05 04:46:42;;;;;;;25.30;20.67;;;;;;;13.96;71.66;100872.16;4185069;28;20067;-57
2022/05/05 04:48:45;;;;;;;23.85;20.65;;;;;;;14.04;70.75;100877.41;4179043;28;20036;-57
2022/05/05 04:50:48;;;;;;;25.30;21.95;;;;;;;13.98;71.30;100873.91;4180489;28;20041;-57
2022/05/05 04:52:51;;;;;;;23.40;18.60;;;;;;;13.92;71.66;100879.97;4190137;28;20037;-57
2022/05/05 04:54:55;;;;;;;21.70;18.77;;;;;;;13.82;71.99;100876.41;4179764;28;20044;-57
2022/05/05 04:57:00;;;;;;;23.80;17.80;;;;;;;13.72;72.29;100888.50;4186893;28;20041;-56
2022/05/05 04:59:03;;;;;;;25.50;20.20;;;;;;;13.64;72.26;100886.69;4189400;28;20110;-57
2022/05/05 05:01:06;;;;;;;23.90;19.95;;;;;;;13.69;72.61;100890.22;4181218;28;20047;-57
2022/05/05 05:03:32;;;;;;;22.25;17.17;;;;;;;13.68;72.66;100891.97;4181847;28;20102;-57
2022/05/05 05:05:33;;;;;;;25.70;18.55;;;;;;;13.68;72.58;100901.53;4181779;28;20037;-57
2022/05/05 05:07:36;;;;;;;20.92;17.33;;;;;;;13.65;72.80;100901.53;4180693;28;20107;-57
2022/05/05 05:09:39;;;;;;;20.83;17.85;;;;;;;13.54;72.68;100904.03;4181442;28;20043;-57
2022/05/05 05:11:41;;;;;;;20.25;17.30;;;;;;;13.43;72.58;100902.22;4181410;28;20561;-56
2022/05/05 05:13:45;;;;;;;20.70;17.40;;;;;;;13.36;72.67;100904.72;4180146;28;20037;-57
2022/05/05 05:15:48;;;;;;;20.00;16.50;;;;;;;13.34;72.57;100914.25;4176791;28;20082;-57
2022/05/05 05:17:51;;;;;;;20.17;16.30;;;;;;;13.25;72.66;100905.47;4181099;28;20037;-57
2022/05/05 05:19:54;;;;;;;18.83;16.58;;;;;;;13.30;72.99;100907.25;4167897;28;20034;-57
2022/05/05 05:21:57;;;;;;;24.90;17.48;;;;;;;13.31;73.29;100906.41;4174492;28;20112;-57
2022/05/05 05:24:00;;;;;;;20.85;16.42;;;;;;;13.37;73.10;100911.72;4176720;28;20047;-57
2022/05/05 05:26:03;;;;;;;27.25;21.00;;;;;;;13.44;73.07;100916.13;4181279;28;20039;-57
2022/05/05 05:28:06;;;;;;;22.48;15.70;;;;;;;13.54;72.66;100919.72;4181238;28;20453;-57
2022/05/05 05:30:15;;;;;;;22.80;17.88;;;;;;;13.53;71.29;100920.56;4180893;28;20041;-57
2022/05/05 05:32:18;;;;;;;23.23;17.40;;;;;;;13.52;71.22;100914.47;4180976;28;20045;-57
2022/05/05 05:34:21;;;;;;;17.23;14.93;;;;;;;13.51;70.78;100915.34;4179838;28;20064;-57
2022/05/05 05:36:27;;;;;;;20.08;16.00;;;;;;;13.46;71.81;100922.25;4181136;28;20041;-57
2022/05/05 05:38:30;;;;;;;18.40;16.20;;;;;;;13.41;72.09;100926.56;4181253;28;20040;-57
2022/05/05 05:40:33;;;;;;;17.85;15.07;;;;;;;13.37;72.47;100927.38;4180667;28;20421;-57
2022/05/05 05:42:36;;;;;;;20.40;16.02;;;;;;;13.35;72.32;100929.97;4179444;28;20409;-57
2022/05/05 05:44:38;;;;;;;19.85;15.05;;;;;;;13.25;72.14;100931.56;4180095;28;20427;-56
2022/05/05 05:46:42;;;;;;;20.50;15.15;;;;;;;13.21;72.65;100929.78;4180788;28;20045;-57
2022/05/05 05:48:45;;;;;;;20.73;16.98;;;;;;;13.15;72.45;100937.56;4180740;28;20131;-56
2022/05/05 05:50:48;;;;;;;19.02;14.32;;;;;;;13.09;72.80;100942.72;4180670;28;20045;-57
2022/05/05 05:52:51;;;;;;;21.48;15.20;;;;;;;13.09;72.74;100934.88;4180649;28;20510;-57
2022/05/05 05:54:54;;;;;;;18.15;14.55;;;;;;;13.11;72.74;100938.38;4180896;28;20079;-57
2022/05/05 05:56:58;;;;;;;20.27;14.02;;;;;;;13.20;72.15;100942.81;4180610;28;20123;-57
2022/05/05 05:59:01;;;;;;;19.08;16.63;;;;;;;13.29;71.81;100940.34;4179624;28;20398;-57
2022/05/05 06:01:06;;;;;;;22.05;14.68;;;;;;;13.38;71.22;100939.59;4180392;28;20387;-57
2022/05/05 06:05:30;;;;;;;17.52;12.82;;;;;;;13.14;71.54;100954.09;4179779;28;19942;-57
2022/05/05 06:07:34;;;;;;;20.88;13.77;;;;;;;13.12;71.67;100947.09;4179429;28;20048;-56
2022/05/05 06:09:37;;;;;;;18.73;14.05;;;;;;;13.15;71.90;100952.34;4179165;28;20044;-56
2022/05/05 06:11:39;;;;;;;18.63;12.45;;;;;;;13.21;71.79;100947.19;4180524;28;20567;-56
2022/05/05 06:13:42;;;;;;;13.15;11.07;;;;;;;13.24;71.51;100953.34;4180391;28;20128;-56
2022/05/05 06:15:45;;;;;;;18.90;14.95;;;;;;;13.35;70.75;100952.63;4179150;28;20047;-57
2022/05/05 06:17:48;;;;;;;20.25;14.55;;;;;;;13.30;70.98;100952.50;4180702;28;20457;-56
2022/05/05 06:19:52;;;;;;;18.73;14.60;;;;;;;13.25;71.19;100962.91;4180200;28;20147;-57
2022/05/05 06:21:55;;;;;;;20.48;13.07;;;;;;;13.23;71.37;100966.38;4180662;28;20040;-56
2022/05/05 06:23:58;;;;;;;20.45;13.60;;;;;;;13.19;71.26;100965.44;4179435;28;20124;-57
2022/05/05 06:26:01;;;;;;;22.00;15.63;;;;;;;13.29;70.97;100966.44;4179147;28;20581;-57
2022/05/05 06:28:05;;;;;;;21.90;14.55;;;;;;;13.14;71.48;100972.38;4180562;28;20040;-57
2022/05/05 06:30:11;;;;;;;24.77;15.20;;;;;;;13.40;70.04;100969.19;4179997;28;20291;-56
2022/05/05 06:32:17;;;;;;;18.58;14.15;;;;;;;13.30;70.72;100980.38;4180318;28;20448;-57
2022/05/05 06:34:20;;;;;;;18.63;14.02;;;;;;;13.30;71.07;100964.69;4180787;28;20043;-57
2022/05/05 06:36:25;;;;;;;17.83;13.05;;;;;;;13.27;71.07;100978.59;4180028;28;20055;-57
2022/05/05 06:38:28;;;;;;;;;;;;;;;13.11;71.64;100977.53;4181060;28;20037;-57
2022/05/05 06:40:30;;;;;;;16.55;13.52;;;;;;;13.14;72.06;100981.91;4178677;28;19936;-57
2022/05/05 06:42:34;;;;;;;15.68;13.10;;;;;;;13.16;72.22;100983.69;4175376;28;20084;-57
2022/05/05 06:44:36;;;;;;;21.63;14.88;;;;;;;13.15;71.90;100991.50;4165350;28;20549;-57
2022/05/05 06:46:39;;;;;;;18.67;15.15;;;;;;;13.15;72.28;100995.00;4179718;28;20048;-57
2022/05/05 06:48:42;;;;;;;24.02;15.43;;;;;;;13.14;72.08;101002.81;4179343;28;20147;-56
2022/05/05 06:50:45;;;;;;;20.10;14.15;;;;;;;13.07;72.04;100999.25;4180408;28;20049;-56
2022/05/05 06:52:49;;;;;;;16.75;14.27;;;;;;;12.96;72.31;101009.53;4180438;28;20560;-57
2022/05/05 06:54:52;;;;;;;19.33;15.48;;;;;;;12.86;72.74;101016.34;4180521;28;20041;-57
2022/05/05 06:56:56;;;;;;;23.00;16.95;;;;;;;12.79;73.41;101021.47;4180364;28;20036;-57
2022/05/05 06:58:59;;;;;;;21.25;16.45;;;;;;;12.82;73.09;101022.41;4179908;28;20398;-57
2022/05/05 07:03:22;;;;;;;25.50;17.70;;;;;;;12.90;73.31;101023.38;4180427;28;20037;-57
2022/05/05 07:05:24;;;;;;;21.88;18.15;;;;;;;13.05;73.25;101025.34;4178728;28;20037;-56
2022/05/05 07:07:27;;;;;;;24.20;17.63;;;;;;;13.18;72.97;101018.50;4179697;28;20475;-56
2022/05/05 07:11:53;;;;;;;24.08;17.67;;;;;;;13.42;72.80;101030.19;4180423;28;20040;-56
2022/05/05 07:13:56;;;;;;;25.17;19.70;;;;;;;13.63;71.48;101024.31;4179210;28;20041;-57
2022/05/05 07:15:59;;;;;;;23.13;16.52;;;;;;;13.55;71.79;101021.63;4175229;28;20399;-57
2022/05/05 07:18:04;;;;;;;22.50;19.60;;;;;;;13.56;71.28;101031.19;4176207;28;20037;-56
2022/05/05 07:20:08;;;;;;;22.95;18.65;;;;;;;13.41;71.62;101025.81;4176595;28;20037;-57
2022/05/05 07:22:11;;;;;;;27.92;17.08;;;;;;;13.37;72.20;101029.22;4178962;28;20499;-57
2022/05/05 07:24:14;;;;;;;24.95;19.17;;;;;;;13.26;72.80;101029.94;4180314;28;20051;-57
2022/05/05 07:26:18;;;;;;;25.33;19.00;;;;;;;13.32;72.86;101031.75;4179019;28;20407;-57
2022/05/05 07:28:21;;;;;;;28.35;19.67;;;;;;;13.25;72.31;101027.31;4179987;28;20063;-57
2022/05/05 07:30:24;;;;;;;23.17;19.27;;;;;;;13.26;72.09;101034.31;4179425;28;20486;-57
2022/05/05 07:32:27;;;;;;;24.17;20.95;;;;;;;13.21;72.69;101036.81;4178533;28;20127;-57
2022/05/05 07:34:35;;;;;;;26.10;20.98;;;;;;;13.08;72.46;101030.59;4163701;28;20398;-57
2022/05/05 07:36:38;;;;;;;27.83;21.08;;;;;;;13.04;73.09;101036.63;4163649;28;20042;-57
2022/05/05 07:38:41;;;;;;;27.75;20.90;;;;;;;13.01;73.04;101035.69;4163635;28;20076;-56
2022/05/05 07:40:44;;;;;;;27.45;22.45;;;;;;;13.02;73.48;101035.72;4163506;28;20045;-57
2022/05/05 07:42:48;;;;;;;28.20;22.85;;;;;;;13.04;73.66;101036.63;4168521;28;20044;-59
2022/05/05 07:44:51;;;;;;;31.23;22.25;;;;;;;13.04;74.14;101044.47;4180104;28;20036;-61
2022/05/05 07:46:54;;;;;;;32.40;23.98;;;;;;;13.13;74.15;101032.38;4180107;28;20044;-60
2022/05/05 07:48:57;;;;;;;25.15;22.05;;;;;;;13.34;72.09;101030.06;4183067;28;20441;-60
2022/05/05 07:51:00;;;;;;;24.48;20.33;;;;;;;13.28;71.94;101038.66;4180888;28;20131;-62
2022/05/05 07:53:03;;;;;;;26.77;19.92;;;;;;;13.40;71.03;101042.31;4182781;28;20047;-58
2022/05/05 07:55:07;;;;;;;22.17;18.90;;;;;;;13.19;70.68;101041.16;4180641;28;20037;-58
2022/05/05 07:57:12;;;;;;;28.70;20.35;;;;;;;13.24;71.09;101036.00;4182684;28;20040;-58
2022/05/05 07:59:17;;;;;;;31.63;22.15;;;;;;;13.14;71.36;101040.25;4177794;28;20406;-59
2022/05/05 08:01:20;;;;;;;28.10;22.35;;;;;;;13.19;71.14;101038.56;4170898;28;20132;-56
2022/05/05 08:03:22;;;;;;;28.70;22.48;;;;;;;13.25;70.68;101037.75;4173841;28;20129;-65
2022/05/05 08:05:26;;;;;;;32.05;24.17;;;;;;;13.14;71.72;101045.47;4186112;28;20037;-64
2022/05/05 08:07:29;;;;;;;25.95;22.42;;;;;;;13.09;72.68;101041.91;4180088;28;20040;-58
2022/05/05 08:09:35;;;;;;;30.60;23.75;;;;;;;13.20;71.88;101037.72;4168465;28;20045;-55
2022/05/05 08:11:59;;;;;;;28.98;21.42;;;;;;;13.15;71.07;101035.88;4180330;28;20064;-55
2022/05/05 08:14:02;;;;;;;;;;;;;;;13.10;70.96;101039.31;4173657;28;20047;-55
2022/05/05 08:16:07;;;;;;;30.77;20.70;;;;;;;13.10;72.14;101043.66;4182297;28;19927;-54
2022/05/05 08:18:09;;;;;;;;;;;;;;;13.12;71.95;101041.06;4177952;28;20498;-56
2022/05/05 08:20:13;;;;;;;26.98;20.83;;;;;;;13.26;71.38;101037.78;4179677;28;19927;-55
2022/05/05 08:22:16;;;;;;;29.88;23.90;;;;;;;13.29;71.25;101039.56;4181885;28;20043;-55
2022/05/05 08:29:00;;;;;;;31.35;22.67;;;;;;;13.32;71.74;101043.94;4182494;28;20041;-54
2022/05/05 08:31:04;;;;;;;37.42;23.35;;;;;;;13.36;71.20;101038.81;4181827;28;20037;-55
2022/05/05 08:33:08;;;;;;;25.87;21.43;;;;;;;13.31;71.90;101042.19;4181371;28;20041;-54
2022/05/05 08:35:13;;;;;;;28.98;23.40;;;;;;;13.32;71.33;101046.56;4181194;28;20047;-54
2022/05/05 08:37:16;;;;;;;26.58;22.02;;;;;;;13.32;71.34;101049.16;4182493;28;20052;-54
2022/05/05 08:39:19;;;;;;;27.92;21.30;;;;;;;13.35;71.82;101057.06;4181978;28;20045;-53
2022/05/05 08:41:21;;;;;;;27.27;20.75;;;;;;;13.37;72.42;101056.22;4180839;28;20115;-54
2022/05/05 08:43:24;;;;;;;20.38;17.52;;;;;;;13.43;72.68;101061.53;4182235;28;20141;-54
2022/05/05 08:45:49;;;;;;;27.30;18.23;;;;;;;13.45;72.54;101066.78;4177879;28;20040;-54
2022/05/05 08:47:54;;;;;;;;;;;;;;;13.51;71.63;101072.06;4173969;28;20045;-54
2022/05/05 08:50:00;;;;;;;25.15;18.75;;;;;;;13.70;69.93;101072.28;4177596;28;20437;-52
2022/05/05 08:52:04;;;;;;;24.48;19.92;;;;;;;13.57;69.94;101077.34;4168348;28;20037;-55
2022/05/05 08:54:07;;;;;;;;;;;;;;;13.50;70.42;101070.31;4182174;28;20048;-55
2022/05/05 08:56:10;;;;;;;28.60;19.95;;;;;;;13.46;69.48;101065.03;4182111;28;20390;-53
2022/05/05 08:58:17;;;;;;;24.50;17.17;;;;;;;13.39;70.61;101071.91;4180469;28;20041;-52
2022/05/05 09:00:20;;;;;;;27.97;19.00;;;;;;;13.43;71.12;101073.69;4181498;28;20041;-54
2022/05/05 09:02:23;;;;;;;25.27;18.80;;;;;;;13.48;69.21;101074.63;4180548;28;20521;-55
2022/05/05 09:04:26;;;;;;;27.25;18.65;;;;;;;13.47;69.84;101075.50;4181306;28;20106;-55
2022/05/05 09:06:46;;;;;;;19.92;16.02;;;;;;;13.43;69.15;101074.59;4181954;28;20597;-53
2022/05/05 09:08:49;;;;;;;25.35;19.90;;;;;;;13.38;70.66;101072.78;4180753;28;20065;-53
2022/05/05 09:10:55;;;;;;;23.38;18.38;;;;;;;13.55;69.53;101079.09;4181509;28;20453;-54
2022/05/05 09:12:58;;;;;;;23.60;18.15;;;;;;;13.55;69.97;101083.41;4180693;28;20040;-54
2022/05/05 09:15:01;;;;;;;21.02;16.90;;;;;;;13.57;69.28;101074.75;4181753;28;20120;-53
2022/05/05 09:17:06;;;;;;;24.17;17.50;;;;;;;13.58;68.91;101079.13;4164067;28;20530;-54
2022/05/05 09:19:10;;;;;;;27.85;18.75;;;;;;;13.56;68.37;101074.72;4180479;28;20510;-55
2022/05/05 09:21:13;;;;;;;28.77;18.20;;;;;;;13.48;68.55;101077.25;4181318;28;20497;-54
2022/05/05 09:23:35;;;;;;;25.80;17.33;;;;;;;13.57;68.39;101072.13;4180437;28;20060;-54
2022/05/05 09:25:45;;;;;;;26.38;16.85;;;;;;;13.47;68.78;101072.88;4181226;28;20120;-53
2022/05/05 09:27:51;;;;;;;24.17;17.40;;;;;;;13.59;67.58;101074.75;4181720;28;20056;-59
2022/05/05 09:30:03;;;;;;;24.92;15.23;;;;;;;13.46;66.65;101078.09;4179169;28;20041;-55
2022/05/05 09:32:11;;;;;;;22.17;16.52;;;;;;;13.40;67.36;101077.16;4184631;28;20552;-56
2022/05/05 09:34:18;;;;;;;22.15;16.10;;;;;;;13.40;67.90;101089.31;4181825;28;20048;-56
2022/05/05 09:36:27;;;;;;;23.58;15.85;;;;;;;13.34;67.41;101086.63;4181391;28;20036;-56
2022/05/05 09:38:48;;;;;;;22.02;16.80;;;;;;;13.38;66.95;101078.88;4181370;28;20041;-56
2022/05/05 09:41:03;;;;;;;28.35;17.73;;;;;;;13.45;67.55;101092.88;4183610;28;20044;-56
2022/05/05 09:43:10;;;;;;;19.88;14.88;;;;;;;13.42;67.54;101085.88;4170746;28;20091;-56
2022/05/05 09:45:17;;;;;;;24.00;16.27;;;;;;;13.41;68.38;101083.25;4185555;28;20044;-56
2022/05/05 09:47:20;;;;;;;22.05;16.95;;;;;;;13.36;68.22;101082.31;4189255;28;20037;-54